Lake View, New York
Current Conditions -  °F | °C
As of 12:54 PM on Friday 24 Oct 2014 (Local Time) from KBUF Reporting Station
Scattered Clouds Scattered Clouds  
Wind Chill: 52°   Ceiling: Unl
Heat Index: 52°   Visibility: 10mi
Dew Point: 39°   Wind: 15mph
Humidity: 61%   Direction: 240°WSW
Pressure: 30.01"   Gusts: NA
Location:  42.71°N, 78.94°W
Report Text: KBUF 241654Z 24013KT 10SM FEW029 SCT200 SCT250 11/04 A3001 RMK AO2 SLP165 T01110039
Loading
Personal Weather Stations






























Interactive Weather Map
Tropical Storm Tracking
New forecast layout! Learn more

10-Day Weather Forecast

Advertisements
Track Severe Weather on mobile